createdAt,value
2024-01-21T00:00:14.397Z,68.13
2024-01-21T00:02:43.001Z,67.56
2024-01-21T00:05:12.317Z,67.74
2024-01-21T00:07:40.853Z,67.79
2024-01-21T00:10:10.656Z,67.73
2024-01-21T00:12:39.337Z,67.51
2024-01-21T00:15:08.778Z,68.03
2024-01-21T00:17:39.262Z,66.89
2024-01-21T00:20:08.258Z,67.37
2024-01-21T00:22:37.530Z,68.12
2024-01-21T00:25:06.449Z,69.31
2024-01-21T00:27:34.390Z,68.99
2024-01-21T00:30:02.383Z,69.63
2024-01-21T00:32:30.514Z,69.34
2024-01-21T00:34:58.435Z,68.82
2024-01-21T00:37:26.333Z,69.04
2024-01-21T00:39:55.753Z,69.34
2024-01-21T00:42:23.731Z,69.71
2024-01-21T00:44:51.686Z,70.05
2024-01-21T00:47:21.392Z,69.56
2024-01-21T00:49:49.551Z,69.66
2024-01-21T00:52:17.564Z,69.30
2024-01-21T00:54:45.608Z,69.65
2024-01-21T00:57:14.903Z,69.51
2024-01-21T00:59:43.688Z,69.10
2024-01-21T01:02:11.835Z,69.15
2024-01-21T01:04:39.884Z,68.07
2024-01-21T01:07:07.881Z,67.78
2024-01-21T01:09:37.592Z,67.61
2024-01-21T01:12:06.129Z,67.53
2024-01-21T01:14:35.365Z,66.99
2024-01-21T01:17:03.394Z,66.81
2024-01-21T01:19:31.436Z,67.28
2024-01-21T01:21:59.508Z,67.37
2024-01-21T01:24:27.550Z,67.01
2024-01-21T01:26:55.684Z,67.32
2024-01-21T01:29:23.631Z,67.35
2024-01-21T01:31:52.931Z,66.77
2024-01-21T01:34:20.868Z,67.05
2024-01-21T01:36:48.921Z,67.51
2024-01-21T01:39:16.916Z,67.16
2024-01-21T01:41:44.868Z,67.21
2024-01-21T01:44:12.816Z,67.52
2024-01-21T01:46:41.194Z,67.02
2024-01-21T01:49:11.660Z,67.60
2024-01-21T01:51:40.774Z,67.16
2024-01-21T01:54:09.240Z,67.27
2024-01-21T01:56:37.240Z,66.91
2024-01-21T01:59:10.248Z,66.71
2024-01-21T02:01:39.668Z,66.92
2024-01-21T02:04:10.558Z,67.31
2024-01-21T02:06:40.845Z,66.70
2024-01-21T02:09:09.603Z,66.82
2024-01-21T02:11:37.582Z,67.19
2024-01-21T02:14:05.553Z,66.65
2024-01-21T02:16:33.502Z,66.69
2024-01-21T02:19:03.603Z,67.28
2024-01-21T02:21:31.768Z,67.31
2024-01-21T02:24:01.005Z,67.35
2024-01-21T02:26:28.886Z,68.59
2024-01-21T02:28:56.781Z,68.91
2024-01-21T02:31:24.806Z,69.84
2024-01-21T02:33:52.809Z,71.26
2024-01-21T02:36:20.831Z,70.39
2024-01-21T02:38:48.698Z,69.85
2024-01-21T02:41:18.003Z,69.38
2024-01-21T02:43:45.865Z,68.91
2024-01-21T02:46:14.000Z,68.41
2024-01-21T02:48:41.986Z,68.82
2024-01-21T02:51:14.788Z,68.84
2024-01-21T02:53:43.021Z,67.91
2024-01-21T02:56:11.105Z,67.96
2024-01-21T02:58:42.577Z,66.98
2024-01-21T03:01:10.657Z,66.79
2024-01-21T03:03:38.736Z,67.17
2024-01-21T03:06:06.745Z,68.21
2024-01-21T03:08:34.637Z,67.81
2024-01-21T03:11:02.718Z,68.88
2024-01-21T03:13:30.693Z,68.13
2024-01-21T03:15:59.980Z,69.22
2024-01-21T03:18:28.042Z,68.26
2024-01-21T03:20:56.047Z,68.83
2024-01-21T03:23:23.901Z,68.52
2024-01-21T03:25:51.841Z,68.30
2024-01-21T03:28:19.847Z,68.12
2024-01-21T03:30:47.839Z,68.65
2024-01-21T03:33:17.328Z,68.56
2024-01-21T03:35:45.360Z,68.71
2024-01-21T03:38:13.330Z,68.66
2024-01-21T03:40:41.292Z,67.78
2024-01-21T03:43:09.219Z,68.43
2024-01-21T03:45:37.239Z,68.14
2024-01-21T03:48:05.947Z,67.59
2024-01-21T03:50:35.325Z,68.34
2024-01-21T03:53:03.680Z,68.28
2024-01-21T03:55:31.648Z,68.56
2024-01-21T03:57:59.763Z,67.35
2024-01-21T04:00:27.805Z,67.26
2024-01-21T04:02:55.686Z,67.89
2024-01-21T04:05:23.668Z,67.25
2024-01-21T04:07:53.009Z,67.00
2024-01-21T04:10:21.484Z,67.42
2024-01-21T04:12:50.136Z,67.34
2024-01-21T04:15:18.320Z,67.48
2024-01-21T04:17:46.319Z,67.19
2024-01-21T04:20:14.322Z,67.26
2024-01-21T04:22:42.176Z,67.49
2024-01-21T04:25:11.573Z,66.42
2024-01-21T04:27:39.583Z,66.77
2024-01-21T04:30:08.702Z,67.05
2024-01-21T04:32:36.774Z,67.81
2024-01-21T04:35:05.163Z,67.97
2024-01-21T04:37:33.096Z,68.52
2024-01-21T04:40:01.155Z,68.37
2024-01-21T04:42:31.145Z,69.00
2024-01-21T04:44:59.056Z,69.80
2024-01-21T04:47:26.932Z,70.45
2024-01-21T04:49:54.933Z,71.06
2024-01-21T04:52:23.033Z,71.55
2024-01-21T04:54:51.232Z,72.06
2024-01-21T04:57:19.189Z,71.64
2024-01-21T04:59:48.491Z,73.09
2024-01-21T05:02:16.421Z,73.06
2024-01-21T05:04:44.404Z,72.27
2024-01-21T05:07:12.344Z,72.89
2024-01-21T05:09:40.359Z,71.95
2024-01-21T05:12:08.704Z,71.68
2024-01-21T05:14:38.136Z,71.36
2024-01-21T05:17:07.462Z,70.92
2024-01-21T05:19:35.617Z,70.22
2024-01-21T05:22:03.746Z,69.33
2024-01-21T05:24:30.792Z,68.91
2024-01-21T05:26:58.684Z,69.67
2024-01-21T05:29:26.593Z,70.18
2024-01-21T05:31:54.479Z,69.99
2024-01-21T05:34:23.864Z,68.73
2024-01-21T05:36:51.880Z,68.67
2024-01-21T05:39:19.934Z,68.84
2024-01-21T05:42:02.050Z,68.88
2024-01-21T05:44:30.427Z,69.27
2024-01-21T05:46:59.181Z,68.54
2024-01-21T05:49:29.363Z,68.78
2024-01-21T05:51:57.493Z,68.88
2024-01-21T05:54:26.459Z,68.43
2024-01-21T05:56:54.785Z,68.58
2024-01-21T05:59:22.714Z,68.52
2024-01-21T06:01:51.466Z,69.28
2024-01-21T06:04:19.596Z,68.67
2024-01-21T06:06:48.972Z,69.09
2024-01-21T06:09:16.907Z,69.15
2024-01-21T06:11:45.892Z,69.15
2024-01-21T06:14:13.961Z,69.60
2024-01-21T06:16:41.907Z,69.72
2024-01-21T06:19:09.932Z,69.62
2024-01-21T06:21:43.856Z,69.40
2024-01-21T06:24:13.622Z,69.42
2024-01-21T06:26:41.856Z,69.09
2024-01-21T06:29:09.886Z,69.87
2024-01-21T06:31:37.983Z,69.01
2024-01-21T06:34:06.042Z,69.66
2024-01-21T06:36:34.305Z,69.79
2024-01-21T06:39:03.167Z,69.76
2024-01-21T06:41:32.494Z,70.11
2024-01-21T06:44:00.629Z,70.50
2024-01-21T06:46:28.723Z,69.01
2024-01-21T06:48:56.768Z,69.22
2024-01-21T06:51:33.080Z,69.66
2024-01-21T06:54:01.596Z,69.54
2024-01-21T06:56:29.541Z,69.96
2024-01-21T06:58:59.039Z,70.01
2024-01-21T07:01:27.094Z,69.63
2024-01-21T07:03:55.224Z,70.15
2024-01-21T07:06:23.594Z,69.86
2024-01-21T07:08:51.694Z,69.88
2024-01-21T07:11:19.647Z,70.25
2024-01-21T07:13:47.641Z,70.33
2024-01-21T07:16:17.110Z,70.10
2024-01-21T07:18:47.085Z,69.43
2024-01-21T07:21:15.209Z,69.61
2024-01-21T07:23:43.244Z,69.67
2024-01-21T07:26:11.211Z,69.35
2024-01-21T07:28:39.173Z,70.04
2024-01-21T07:31:07.276Z,70.00
2024-01-21T07:33:36.677Z,70.07
2024-01-21T07:36:05.404Z,70.79
2024-01-21T07:38:33.409Z,70.52
2024-01-21T07:41:01.405Z,71.03
2024-01-21T07:43:29.681Z,70.61
2024-01-21T07:45:57.672Z,70.42
2024-01-21T07:48:25.708Z,70.27
2024-01-21T07:50:55.258Z,71.16
2024-01-21T07:53:23.725Z,69.54
2024-01-21T07:55:51.653Z,70.16
2024-01-21T07:58:20.938Z,70.11
2024-01-21T08:00:49.544Z,70.31
2024-01-21T08:03:18.696Z,70.81
2024-01-21T08:05:46.910Z,70.31
2024-01-21T08:08:16.237Z,70.75
2024-01-21T08:10:44.234Z,69.82
2024-01-21T08:13:12.381Z,70.66
2024-01-21T08:15:40.314Z,70.60
2024-01-21T08:18:08.827Z,70.38
2024-01-21T08:20:36.837Z,70.09
2024-01-21T08:23:04.997Z,69.58
2024-01-21T08:25:34.311Z,70.93
2024-01-21T08:28:02.266Z,71.02
2024-01-21T08:30:30.207Z,70.90
2024-01-21T08:32:58.608Z,71.60
2024-01-21T08:35:26.841Z,70.79
2024-01-21T08:37:54.833Z,71.51
2024-01-21T08:40:22.956Z,70.97
2024-01-21T08:42:53.567Z,70.99
2024-01-21T08:45:21.598Z,71.67
2024-01-21T08:47:49.632Z,71.36
2024-01-21T08:50:17.927Z,72.14
2024-01-21T08:52:45.881Z,72.43
2024-01-21T08:55:13.866Z,72.66
2024-01-21T08:57:42.159Z,72.90
2024-01-21T09:00:15.104Z,72.87
2024-01-21T09:02:43.333Z,73.07
2024-01-21T09:05:11.310Z,73.44
2024-01-21T09:07:39.298Z,72.88
2024-01-21T09:10:10.275Z,72.63
2024-01-21T09:12:38.412Z,73.44
2024-01-21T09:15:10.024Z,72.93
2024-01-21T09:17:39.391Z,72.63
2024-01-21T09:20:08.490Z,72.69
2024-01-21T09:22:36.608Z,72.57
2024-01-21T09:25:05.070Z,72.59
2024-01-21T09:27:33.172Z,72.28
2024-01-21T09:30:01.204Z,72.09
2024-01-21T09:32:29.488Z,71.97
2024-01-21T09:34:59.741Z,72.04
2024-01-21T09:37:29.756Z,71.56
2024-01-21T09:39:57.888Z,71.39
2024-01-21T09:42:25.858Z,71.78
2024-01-21T09:44:54.733Z,71.36
2024-01-21T09:47:23.404Z,71.27
2024-01-21T09:49:52.855Z,71.20
2024-01-21T09:52:22.336Z,71.07
2024-01-21T09:54:51.580Z,70.50
2024-01-21T09:57:19.595Z,70.67
2024-01-21T09:59:48.966Z,70.48
2024-01-21T10:02:18.253Z,70.62
2024-01-21T10:04:46.645Z,70.63
2024-01-21T10:07:15.484Z,70.24
2024-01-21T10:09:45.019Z,70.13
2024-01-21T10:12:13.311Z,70.30
2024-01-21T10:14:41.217Z,70.25
2024-01-21T10:17:09.342Z,70.09
2024-01-21T10:19:37.628Z,70.05
2024-01-21T10:22:10.583Z,70.27
2024-01-21T10:24:39.353Z,70.54
2024-01-21T10:27:09.807Z,70.08
2024-01-21T10:29:42.247Z,70.21
2024-01-21T10:32:11.627Z,70.38
2024-01-21T10:34:40.301Z,70.45
2024-01-21T10:37:08.682Z,70.49
2024-01-21T10:39:38.831Z,70.02
2024-01-21T10:42:10.166Z,69.86
2024-01-21T10:44:40.216Z,70.09
2024-01-21T10:47:10.214Z,70.05
2024-01-21T10:49:38.446Z,69.92
2024-01-21T10:52:09.017Z,69.77
2024-01-21T10:54:38.905Z,70.00
2024-01-21T10:57:07.296Z,70.36
2024-01-21T10:59:39.632Z,70.36
2024-01-21T11:02:10.308Z,70.32
2024-01-21T11:04:38.640Z,70.11
2024-01-21T11:07:08.004Z,70.58
2024-01-21T11:09:38.447Z,70.43
2024-01-21T11:12:07.585Z,69.82
2024-01-21T11:14:38.173Z,69.47
2024-01-21T11:17:07.748Z,69.35
2024-01-21T11:19:46.472Z,69.21
2024-01-21T11:22:16.382Z,69.19
2024-01-21T11:24:47.103Z,69.38
2024-01-21T11:27:19.603Z,69.26
2024-01-21T11:29:50.173Z,69.32
2024-01-21T11:32:24.111Z,69.06
2024-01-21T11:34:52.293Z,69.06
2024-01-21T11:37:20.887Z,69.60
2024-01-21T11:39:49.147Z,69.53
2024-01-21T11:42:17.702Z,69.40
2024-01-21T11:44:45.843Z,69.25
2024-01-21T11:47:15.489Z,69.56
2024-01-21T11:49:43.503Z,69.50
2024-01-21T11:52:11.530Z,69.43
2024-01-21T11:54:40.512Z,69.25
2024-01-21T11:57:09.484Z,69.32
2024-01-21T11:59:37.300Z,69.25
2024-01-21T12:02:08.333Z,69.20
2024-01-21T12:04:39.118Z,69.37
2024-01-21T12:07:08.132Z,69.15
2024-01-21T12:09:37.085Z,69.04
2024-01-21T12:12:09.575Z,68.95
2024-01-21T12:14:38.845Z,69.13
2024-01-21T12:17:06.911Z,68.94
2024-01-21T12:19:34.961Z,69.27
2024-01-21T12:22:04.325Z,68.99
2024-01-21T12:24:32.405Z,68.97
2024-01-21T12:27:01.794Z,68.93
2024-01-21T12:29:37.969Z,68.90
2024-01-21T12:32:06.651Z,68.86
2024-01-21T12:34:35.985Z,68.82
2024-01-21T12:37:08.164Z,69.01
2024-01-21T12:39:36.619Z,68.84
2024-01-21T12:42:04.770Z,68.49
2024-01-21T12:44:32.723Z,68.59
2024-01-21T12:47:00.708Z,68.47
2024-01-21T12:49:28.702Z,68.52
2024-01-21T12:51:56.634Z,67.87
2024-01-21T12:54:26.032Z,67.92
2024-01-21T12:56:54.103Z,67.91
2024-01-21T12:59:21.987Z,67.63
2024-01-21T13:01:49.905Z,67.21
2024-01-21T13:04:17.975Z,67.23
2024-01-21T13:06:46.226Z,66.67
2024-01-21T13:09:14.302Z,66.54
2024-01-21T13:11:43.980Z,66.62
2024-01-21T13:14:19.404Z,66.18
2024-01-21T13:16:52.590Z,65.91
2024-01-21T13:19:20.794Z,65.12
2024-01-21T13:21:48.878Z,65.07
2024-01-21T13:24:17.355Z,64.94
2024-01-21T13:26:53.408Z,64.64
2024-01-21T13:29:39.058Z,64.26
2024-01-21T13:32:07.948Z,64.41
2024-01-21T13:34:36.043Z,63.91
2024-01-21T13:37:04.477Z,64.13
2024-01-21T13:39:34.398Z,64.00
2024-01-21T13:42:03.796Z,63.79
2024-01-21T13:44:35.007Z,63.66
2024-01-21T13:47:03.219Z,63.06
2024-01-21T13:49:31.260Z,63.28
2024-01-21T13:51:59.670Z,63.07
2024-01-21T13:54:27.622Z,62.62
2024-01-21T13:56:55.619Z,62.82
2024-01-21T13:59:25.023Z,61.83
2024-01-21T14:01:58.052Z,61.88
2024-01-21T14:04:34.068Z,61.57
2024-01-21T14:07:02.133Z,62.14
2024-01-21T14:09:30.157Z,61.70
2024-01-21T14:11:58.952Z,61.20
2024-01-21T14:14:28.249Z,61.54
2024-01-21T14:16:56.156Z,60.72
2024-01-21T14:19:24.182Z,60.77
2024-01-21T14:21:52.138Z,60.06
2024-01-21T14:24:20.379Z,59.90
2024-01-21T14:26:48.955Z,59.11
2024-01-21T14:29:22.743Z,59.21
2024-01-21T14:31:52.013Z,58.89
2024-01-21T14:34:20.145Z,58.05
2024-01-21T14:36:48.338Z,58.08
2024-01-21T14:39:16.858Z,57.88
2024-01-21T14:41:44.796Z,57.54
2024-01-21T14:44:12.942Z,56.99
2024-01-21T14:46:41.700Z,56.83
2024-01-21T14:49:11.759Z,56.87
2024-01-21T14:51:39.951Z,56.79
2024-01-21T14:54:07.953Z,56.52
2024-01-21T14:56:36.136Z,56.62
2024-01-21T14:59:04.888Z,56.53
2024-01-21T15:01:32.896Z,57.22
2024-01-21T15:04:01.335Z,57.32
2024-01-21T15:06:32.672Z,57.00
2024-01-21T15:09:01.310Z,57.49
2024-01-21T15:11:29.656Z,57.34
2024-01-21T15:14:02.514Z,57.46
2024-01-21T15:16:30.496Z,57.92
2024-01-21T15:18:58.844Z,58.91
2024-01-21T15:21:27.024Z,59.16
2024-01-21T15:23:56.300Z,59.56
2024-01-21T15:26:25.776Z,60.12
2024-01-21T15:28:54.720Z,60.56
2024-01-21T15:31:23.775Z,60.57
2024-01-21T15:33:51.771Z,61.41
2024-01-21T15:36:19.890Z,61.83
2024-01-21T15:38:47.848Z,61.83
2024-01-21T15:41:17.131Z,62.30
2024-01-21T15:43:45.341Z,62.29
2024-01-21T15:46:13.252Z,62.70
2024-01-21T15:48:41.427Z,63.15
2024-01-21T15:51:10.146Z,63.38
2024-01-21T15:53:38.196Z,63.73
2024-01-21T15:56:06.433Z,63.73
2024-01-21T15:58:35.778Z,63.97
2024-01-21T16:01:04.038Z,64.36
2024-01-21T16:03:32.082Z,64.39
2024-01-21T16:06:00.089Z,64.39
2024-01-21T16:08:28.045Z,64.30
2024-01-21T16:10:56.013Z,64.33
2024-01-21T16:13:30.367Z,64.09
2024-01-21T16:16:06.211Z,64.03
2024-01-21T16:18:34.597Z,63.89
2024-01-21T16:21:03.006Z,63.71
2024-01-21T16:23:31.313Z,63.66
2024-01-21T16:25:59.245Z,63.81
2024-01-21T16:28:27.264Z,63.60
2024-01-21T16:30:55.301Z,63.88
2024-01-21T16:33:25.282Z,64.24
2024-01-21T16:35:53.576Z,64.10
2024-01-21T16:38:22.278Z,64.34
2024-01-21T16:40:51.404Z,64.69
2024-01-21T16:43:19.593Z,65.19
2024-01-21T16:45:47.572Z,65.15
2024-01-21T16:48:17.540Z,65.32
2024-01-21T16:50:49.670Z,65.69
2024-01-21T16:53:24.208Z,65.63
2024-01-21T16:55:52.174Z,65.73
2024-01-21T16:58:20.195Z,65.69
2024-01-21T17:00:52.771Z,66.12
2024-01-21T17:03:25.234Z,65.83
2024-01-21T17:05:54.842Z,66.21
2024-01-21T17:08:22.909Z,66.22
2024-01-21T17:10:57.254Z,66.16
2024-01-21T17:13:25.221Z,66.17
2024-01-21T17:15:53.219Z,65.94
2024-01-21T17:18:31.101Z,66.41
2024-01-21T17:21:00.666Z,66.78
2024-01-21T17:23:28.634Z,67.01
2024-01-21T17:25:56.562Z,67.04
2024-01-21T17:28:24.452Z,67.34
2024-01-21T17:30:52.466Z,67.62
2024-01-21T17:33:20.627Z,67.51
2024-01-21T17:35:48.725Z,67.06
2024-01-21T17:38:18.010Z,67.34
2024-01-21T17:40:46.096Z,67.00
2024-01-21T17:43:14.159Z,66.30
2024-01-21T17:45:42.208Z,66.49
2024-01-21T17:48:10.351Z,66.13
2024-01-21T17:50:38.414Z,66.07
2024-01-21T17:53:06.866Z,66.15
2024-01-21T17:55:36.275Z,66.49
2024-01-21T17:58:04.361Z,66.32
2024-01-21T18:00:32.842Z,66.71
2024-01-21T18:03:00.996Z,67.07
2024-01-21T18:05:29.100Z,67.56
2024-01-21T18:08:00.603Z,67.95
2024-01-21T18:10:28.744Z,67.83
2024-01-21T18:12:58.050Z,68.26
2024-01-21T18:15:26.121Z,67.91
2024-01-21T18:17:54.123Z,67.91
2024-01-21T18:20:22.206Z,68.15
2024-01-21T18:22:51.952Z,68.27
2024-01-21T18:25:19.960Z,68.45
2024-01-21T18:27:48.148Z,68.53
2024-01-21T18:30:17.917Z,68.09
2024-01-21T18:32:46.737Z,67.90
2024-01-21T18:35:16.293Z,68.25
2024-01-21T18:37:44.374Z,68.93
2024-01-21T18:40:15.663Z,68.98
2024-01-21T18:42:43.769Z,69.24
2024-01-21T18:45:12.107Z,69.01
2024-01-21T18:47:41.650Z,68.93
2024-01-21T18:50:09.810Z,69.15
2024-01-21T18:52:37.839Z,69.00
2024-01-21T18:55:06.533Z,69.32
2024-01-21T18:57:34.483Z,69.40
2024-01-21T19:00:02.712Z,69.14
2024-01-21T19:02:30.752Z,69.19
2024-01-21T19:05:00.163Z,69.47
2024-01-21T19:07:32.995Z,69.67
2024-01-21T19:10:04.146Z,69.70
2024-01-21T19:12:31.174Z,69.84
2024-01-21T19:14:59.146Z,70.08
2024-01-21T19:17:27.126Z,69.94
2024-01-21T19:19:56.876Z,69.95
2024-01-21T19:22:26.201Z,69.63
2024-01-21T19:24:54.507Z,69.74
2024-01-21T19:27:22.985Z,69.84
2024-01-21T19:29:51.015Z,69.60
2024-01-21T19:32:19.128Z,69.36
2024-01-21T19:34:47.218Z,69.39
2024-01-21T19:37:15.353Z,69.57
2024-01-21T19:39:44.668Z,69.74
2024-01-21T19:42:13.446Z,69.30
2024-01-21T19:44:40.605Z,69.05
2024-01-21T19:47:08.554Z,69.17
2024-01-21T19:49:36.449Z,69.03
2024-01-21T19:52:05.234Z,68.56
2024-01-21T19:54:36.081Z,69.00
2024-01-21T19:57:05.854Z,69.05
2024-01-21T19:59:33.860Z,68.63
2024-01-21T20:02:01.898Z,68.30
2024-01-21T20:04:29.823Z,68.34
2024-01-21T20:06:57.827Z,68.01
2024-01-21T20:09:26.053Z,68.54
2024-01-21T20:11:54.176Z,68.62
2024-01-21T20:14:23.464Z,68.76
2024-01-21T20:16:51.395Z,68.67
2024-01-21T20:19:20.261Z,69.29
2024-01-21T20:21:48.834Z,69.23
2024-01-21T20:24:16.964Z,69.56
2024-01-21T20:26:44.934Z,69.62
2024-01-21T20:29:13.457Z,69.71
2024-01-21T20:31:42.817Z,69.98
2024-01-21T20:34:11.037Z,70.12
2024-01-21T20:36:39.215Z,70.23
2024-01-21T20:39:09.494Z,70.36
2024-01-21T20:41:37.496Z,70.30
2024-01-21T20:44:07.220Z,70.60
2024-01-21T20:46:35.338Z,70.33
2024-01-21T20:49:04.726Z,70.52
2024-01-21T20:51:32.794Z,70.54
2024-01-21T20:54:00.725Z,69.89
2024-01-21T20:56:28.820Z,69.50
2024-01-21T20:58:56.833Z,69.65
2024-01-21T21:01:27.938Z,69.84
2024-01-21T21:03:55.923Z,69.80
2024-01-21T21:06:25.309Z,70.09
2024-01-21T21:08:53.647Z,70.16
2024-01-21T21:11:21.978Z,70.28
2024-01-21T21:13:50.214Z,70.43
2024-01-21T21:16:20.586Z,70.87
2024-01-21T21:18:48.837Z,71.17
2024-01-21T21:21:16.903Z,71.02
2024-01-21T21:23:46.611Z,71.39
2024-01-21T21:26:14.594Z,71.12
2024-01-21T21:28:42.531Z,71.26
2024-01-21T21:31:10.530Z,71.19
2024-01-21T21:33:39.218Z,71.67
2024-01-21T21:36:07.909Z,72.30
2024-01-21T21:38:35.800Z,72.40
2024-01-21T21:41:05.357Z,71.80
2024-01-21T21:43:34.321Z,71.59
2024-01-21T21:46:02.299Z,71.78
2024-01-21T21:48:30.616Z,72.02
2024-01-21T21:50:58.618Z,71.68
2024-01-21T21:53:27.255Z,71.46
2024-01-21T21:55:55.204Z,71.65
2024-01-21T21:58:26.451Z,71.53
2024-01-21T22:00:55.147Z,71.03
2024-01-21T22:03:23.829Z,70.91
2024-01-21T22:05:52.010Z,70.99
2024-01-21T22:08:20.288Z,70.87
2024-01-21T22:10:48.386Z,71.30
2024-01-21T22:13:16.887Z,71.03
2024-01-21T22:15:46.346Z,71.62
2024-01-21T22:18:15.086Z,71.16
2024-01-21T22:20:43.845Z,71.16
2024-01-21T22:23:12.848Z,71.68
2024-01-21T22:25:40.961Z,71.52
2024-01-21T22:28:08.903Z,71.72
2024-01-21T22:30:36.926Z,71.38
2024-01-21T22:33:06.707Z,71.24
2024-01-21T22:35:34.825Z,71.26
2024-01-21T22:38:04.238Z,71.39
2024-01-21T22:40:32.352Z,71.29
2024-01-21T22:43:00.291Z,71.04
2024-01-21T22:45:28.457Z,70.85
2024-01-21T22:47:56.392Z,71.05
2024-01-21T22:50:26.015Z,70.51
2024-01-21T22:52:53.952Z,70.33
2024-01-21T22:55:20.901Z,70.68
2024-01-21T22:57:48.793Z,70.33
2024-01-21T23:00:22.445Z,70.49
2024-01-21T23:02:50.549Z,70.69
2024-01-21T23:05:20.865Z,70.60
2024-01-21T23:07:50.895Z,70.56
2024-01-21T23:10:19.141Z,70.61
2024-01-21T23:12:47.028Z,70.71
2024-01-21T23:15:15.564Z,70.36
2024-01-21T23:17:43.655Z,70.28
2024-01-21T23:20:12.810Z,70.18
2024-01-21T23:22:41.081Z,70.00
2024-01-21T23:25:10.615Z,70.05
2024-01-21T23:27:38.620Z,69.75
2024-01-21T23:30:07.835Z,70.09
2024-01-21T23:32:35.861Z,69.92
2024-01-21T23:35:03.819Z,69.94
2024-01-21T23:37:31.784Z,69.44
2024-01-21T23:39:59.682Z,69.54
2024-01-21T23:42:28.938Z,70.42
2024-01-21T23:44:56.987Z,69.89
2024-01-21T23:47:24.977Z,69.61
2024-01-21T23:49:53.298Z,69.74
2024-01-21T23:52:21.382Z,69.69
2024-01-21T23:54:49.525Z,69.83
2024-01-21T23:57:17.486Z,69.71
2024-01-21T23:59:47.523Z,69.92
